Aeroporto :
LOGIN :

Iscrizione | Disclaimer

   EN    FR    IT 

 










Sommario :    VFR   VFR Marginale   IFR   IFR Intensivo   IFR Molto Intensivo
Visibilità : 
Base nubi : 
>= 8 km
>= 3000ft
5 / 8 km
1000 / 3000 ft
1500m / 5 km
500 / 1000 ft
800 / 1500m
200 / 500 ft
< 800m
< 200 ft
Simboli :   Temporali  Nebbia  Neve Forte  Precipitazioni Forti  Vento > 20 kt
SIGMETs :   Varie  Temporali  Ghiacco  Turbolenza  Onda orograficha  Ceneri Vulcaniche






- Altitudine del aeroporto : 755 ft
- Codice IATA : DRS


EDDC - Dresden Klotzsche

ULTIMO METAR :
  • 300420Z 24003KT 9999 SCT043 M01/M01 Q1025

METARs OBSOLETI :
  • 300350Z 27003KT 9999 BKN044 00/M01 Q1025
  • 300320Z 26004KT 9999 FEW015 BKN046 01/M01 Q1025
  • 300250Z 27003KT 9999 SCT015 BKN046 00/M01 Q1025
  • 300220Z 28003KT 9999 BKN015 BKN029 00/M01 Q1025
  • 300150Z 27003KT 9999 BKN015 00/M01 Q1025

TAF TAF EDDC
Valido dal 30 a 00 ore il 01 a 00 ore UTC


292300Z 3000/3024 28004KT 9999 BKN030
PROB30
TEMPO 3000/3009 BKN009
BECMG 3009/3011 19005KT
BECMG 3017/3019 17010KT



MetMap, La meteo Aeronautica in un colpo d'occhio ! - Copyright ORBIFLY Dicembre 2007 - Disclaimer

ORBIFLY MET'MAP TEAM :

Programmazione e sviluppo : Alexandra Zaïnal
Concezione : Baudouin d'Aumeries
Aiuto per la programmazione : Marc-Olivier Méhu
Supporto tecnico e logistico : Manuel Goepfert
Aiuto per la traduzione : Arnaldo La Scala

Contatto : metmap@orbifly.com




FONTI E CREDITI :

   NOAA